Home > Products > Valid Products > TAF

000
FTUS42 KTAE 242300
TAFTLH
TAF
KTLH 242320Z 2500/2524 18005KT P6SM FEW060
     FM250200 22003KT P6SM SKC
     FM250600 27003KT 1SM BR BKN003
     FM251300 24007KT P6SM BKN025
     FM251500 25010G15KT P6SM SCT040=



000
FTUS42 KTAE 242300
TAFABY
TAF
KABY 242320Z 2500/2524 00000KT P6SM SCT070
     FM250600 23004KT 6SM BR SKC
     FM251000 22004KT 5SM BR BKN015
     FM251400 27010G15KT P6SM SCT035=



000
FTUS42 KTAE 242300
TAFDHN
TAF
KDHN 242320Z 2500/2524 21010KT P6SM SKC
     FM250100 22008KT P6SM SKC
     FM250800 23008KT P6SM BKN010
      TEMPO 2509/2513 5SM BR BKN007
     FM251400 26010KT P6SM BKN025
     FM251500 27010G15KT P6SM SCT040=



000
FTUS42 KTAE 242300
TAFVLD
TAF
KVLD 242320Z 2500/2524 21003KT P6SM SCT060
     FM250200 00000KT P6SM SKC
     FM250600 00000KT 2SM BR BKN005
     FM250900 00000KT 1/4SM FG VV002
     FM251400 23007KT P6SM SCT025
     FM251800 24009G14KT P6SM SCT050=



000
FTUS42 KTAE 241700
TAFTLH
TAF
KTLH 241723Z 2418/2518 18008KT P6SM SCT050
     FM250100 VRB03KT P6SM SKC
     FM250700 27003KT 1SM BR BKN003
     FM251300 24010KT P6SM SCT025 BKN060=



000
FTUS42 KTAE 241700
TAFDHN
TAF
KDHN 241723Z 2418/2518 17007KT P6SM SCT050 SCT070
     FM250100 22008KT P6SM SKC
     FM251000 23008KT P6SM BKN010
     FM251400 27015KT P6SM BKN025 BKN070=



000
FTUS42 KTAE 241700
TAFABY
TAF
KABY 241723Z 2418/2518 17005KT P6SM SCT050 SCT070
     FM250100 VRB03KT P6SM SKC
     FM250600 23004KT 6SM BR SKC
     FM251100 22004KT 6SM BR BKN010
     FM251400 25015KT P6SM SCT025 BKN060=



000
FTUS42 KTAE 241700
TAFVLD
TAF
KVLD 241723Z 2418/2518 16007KT P6SM SCT050 SCT070
     FM250100 00000KT P6SM SKC
     FM250600 00000KT 1SM BR VV005
     FM250900 00000KT 1/4SM FG VV002
     FM251300 23007KT P6SM SCT025 SCT060=



000
FTUS42 KTAE 241300 AAA
TAFTLH
TAF AMD
KTLH 241301Z 2413/2512 33004KT P6SM FEW040 SCT070
     FM241800 18007KT P6SM SCT040
     FM250800 00000KT 1SM BR BKN005=



000
FTUS42 KTAE 241100
TAFTLH
TAF
KTLH 241120Z 2412/2512 00000KT 3SM BR SCT080
      TEMPO 2412/2413 1/4SM FG BKN002
     FM241400 17007KT P6SM SCT040
     FM250800 00000KT 1SM BR BKN005=



000
FTUS42 KTAE 241100
TAFDHN
TAF
KDHN 241120Z 2412/2512 02003KT P6SM BKN070
     FM241400 19007KT P6SM SCT060
     FM251000 22005KT P6SM BKN015=



000
FTUS42 KTAE 241100
TAFVLD
TAF
KVLD 241120Z 2412/2512 00000KT 2SM BR SCT001 BKN080
      TEMPO 2412/2413 1/2SM FG BKN001
     FM241400 16004KT P6SM SCT040
     FM250700 00000KT 3SM BR BKN015=



000
FTUS42 KTAE 241100
TAFABY
TAF
KABY 241120Z 2412/2512 00000KT P6SM BKN070
     FM241400 19006KT P6SM SCT060
     FM251000 22004KT P6SM BKN015=



000
FTUS42 KTAE 241000 AAB
TAFTLH
TAF AMD
KTLH 241043Z 2411/2506 00000KT 5SM BR SCT080
      TEMPO 2411/2412 1/4SM FG VV002
     FM241300 17007KT P6SM SCT040=



000
FTUS42 KTAE 241000 AAA
TAFVLD
TAF AMD
KVLD 241002Z 2410/2506 00000KT 1/4SM FG OVC001
     FM241300 16004KT P6SM SCT040=



000
FTUS42 KTAE 240900 AAA
TAFTLH
TAF AMD
KTLH 240909Z 2409/2506 00000KT 5SM BR SCT080
      TEMPO 2409/2412 1SM BR VV002
     FM241300 17007KT P6SM SCT040=



000
FTUS42 KTAE 240500
TAFTLH
TAF
KTLH 240520Z 2406/2506 00000KT 6SM BR SKC
     FM240800 00000KT 1/2SM FG VV002
     FM241300 17007KT P6SM SCT040=



000
FTUS42 KTAE 240500
TAFVLD
TAF
KVLD 240520Z 2406/2506 00000KT 2SM BR SCT007
     FM241100 00000KT 1/2SM FG SCT003
     FM241300 16004KT P6SM SCT040=



000
FTUS42 KTAE 240500
TAFDHN
TAF
KDHN 240520Z 2406/2506 02003KT P6SM SKC
      TEMPO 2410/2412 5SM BR
     FM241400 19007KT P6SM SCT060=



000
FTUS42 KTAE 240500
TAFABY
TAF
KABY 240520Z 2406/2506 00000KT P6SM SKC
      TEMPO 2409/2412 5SM BR
     FM241400 19006KT P6SM SCT060=



000
FTUS42 KTAE 232300
TAFABY
TAF
KABY 232320Z 2400/2424 VRB04KT P6SM FEW070
     FM240300 00000KT P6SM SKC
      TEMPO 2410/2412 5SM BR
     FM241400 19006KT P6SM SCT060=



000
FTUS42 KTAE 232300
TAFTLH
TAF
KTLH 232320Z 2400/2424 20005KT P6SM BKN060
     FM240200 00000KT P6SM SKC
     FM240800 00000KT 1/2SM FG VV002
     FM241400 16005KT P6SM SCT040=



000
FTUS42 KTAE 232300
TAFVLD
TAF
KVLD 232320Z 2400/2424 00000KT P6SM SKC
     FM240800 00000KT 4SM BR FEW007
     FM241100 00000KT 1SM BR SCT003
     FM241400 16004KT P6SM SCT040=



000
FTUS42 KTAE 232300
TAFDHN
TAF
KDHN 232320Z 2400/2424 32006KT P6SM FEW070
     FM240300 02003KT P6SM SKC
      TEMPO 2410/2412 5SM BR
     FM241400 19007KT P6SM SCT060=



000
FTUS42 KTAE 231700 RRA
TAFDHN
TAF
KDHN 231747Z 2318/2418 33006KT P6SM BKN040
     FM240300 03004KT P6SM SKC
      TEMPO 2409/2412 5SM BR
     FM241300 VRB04KT P6SM SKC=



000
FTUS42 KTAE 231700 RRA
TAFABY
TAF
KABY 231747Z 2318/2418 30005KT P6SM SCT050
     FM240100 VRB03KT P6SM SKC
      TEMPO 2409/2412 5SM BR
     FM241300 VRB04KT P6SM SKC=



000
FTUS42 KTAE 231700 RRA
TAFTLH
TAF
KTLH 231747Z 2318/2418 32005KT P6SM BKN040
     FM240100 00000KT P6SM SKC
     FM240700 00000KT 1/2SM FG VV002
     FM241400 VRB04KT P6SM SCT025=



000
FTUS42 KTAE 231700 RRA
TAFVLD
TAF
KVLD 231747Z 2318/2418 32005KT P6SM BKN040
     FM240100 00000KT P6SM SKC
      TEMPO 2409/2412 5SM BR
     FM241400 VRB04KT P6SM SKC=



000
FTUS42 KTAE 231100 AAA
TAFDHN
TAF AMD
KDHN 231158Z 2312/2412 32004KT 3SM BR SCT007 SCT100
      TEMPO 2312/2313 1/2SM FG
     FM231300 35006KT P6SM SCT040=



000
FTUS42 KTAE 231100
TAFVLD
TAF
KVLD 231122Z 2312/2412 32005KT P6SM SCT040
     FM240700 00000KT 3SM BR BKN008=



000
FTUS42 KTAE 231100
TAFABY
TAF
KABY 231122Z 2312/2412 00000KT 3SM BR SCT007 BKN050
      TEMPO 2312/2313 1/2SM FG BKN004
     FM231400 33005KT P6SM SCT040
     FM240800 00000KT 3SM BR BKN008=



000
FTUS42 KTAE 231100
TAFDHN
TAF
KDHN 231122Z 2312/2412 32004KT 3SM BR SCT007 SCT100
     FM231300 35006KT P6SM SCT040=



000
FTUS42 KTAE 231100
TAFTLH
TAF
KTLH 231122Z 2312/2412 00000KT 1SM BR BKN002
      TEMPO 2312/2313 1/2SM FG BKN002
     FM231400 33005KT P6SM SCT040
     FM240800 00000KT 1SM BR BKN008=



000
FTUS42 KTAE 231000 AAB
TAFABY
TAF AMD
KABY 231043Z 2311/2406 00000KT 3SM BR SCT007 BKN050
      TEMPO 2311/2312 1/2SM FG BKN004
     FM231400 33005KT P6SM SCT040=



000
FTUS42 KTAE 231000 AAA
TAFVLD
TAF AMD
KVLD 231043Z 2311/2406 00000KT P6SM SCT002
      TEMPO 2311/2313 3SM BR
     FM231400 32005KT P6SM SCT040=



000
FTUS42 KTAE 230700 AAA
TAFABY
TAF AMD
KABY 230745Z 2308/2406 00000KT 3SM BR SCT007 BKN050
      TEMPO 2308/2312 1/4SM FG BKN005
     FM231400 33005KT P6SM SCT040=



000
FTUS42 KTAE 230500
TAFVLD
TAF
KVLD 230521Z 2306/2406 00000KT P6SM FEW007
     FM230800 00000KT 4SM BR SCT002
      TEMPO 2309/2313 1/2SM FG BKN002
     FM231400 32005KT P6SM SCT040=



000
FTUS42 KTAE 230500
TAFTLH
TAF
KTLH 230521Z 2306/2406 00000KT P6SM FEW007
     FM230800 00000KT 1SM BR BKN005
      TEMPO 2310/2312 1/2SM FG BKN002
     FM231400 33005KT P6SM SCT040=



000
FTUS42 KTAE 230500
TAFDHN
TAF
KDHN 230521Z 2306/2406 VRB03KT P6SM SCT040
     FM231000 32004KT 6SM BR SCT007 SCT100
     FM231400 35006KT P6SM SCT040=



000
FTUS42 KTAE 230500
TAFABY
TAF
KABY 230521Z 2306/2406 00000KT 3SM BR SCT007 BKN050
      TEMPO 2309/2313 1/2SM FG BKN005
     FM231400 33005KT P6SM SCT040=



000
FTUS42 KTAE 230200 AAA
TAFABY
TAF AMD
KABY 230207Z 2302/2324 00000KT 1SM BR SCT007 SCT100
     FM231400 33005KT P6SM SCT040=



000
FTUS42 KTAE 222300
TAFTLH
TAF
KTLH 222331Z 2300/2324 26004KT 6SM HZ SCT050
     FM230500 00000KT 4SM BR FEW007
     FM230800 00000KT 1SM BR SCT002
      TEMPO 2310/2312 1/2SM FG BKN002
     FM231400 33005KT P6SM SCT040=



000
FTUS42 KTAE 222300
TAFVLD
TAF
KVLD 222331Z 2300/2324 VRB03KT 6SM HZ SCT060
     FM230600 00000KT 4SM BR FEW007
     FM230800 00000KT 1SM BR SCT002
      TEMPO 2309/2312 1/2SM FG BKN002
     FM231400 32005KT P6SM SCT040=



000
FTUS42 KTAE 222300
TAFABY
TAF
KABY 222331Z 2300/2324 29005KT P6SM SHRA VCTS BKN060CB OVC100
     FM230300 31002KT P6SM BKN100
     FM231000 33003KT 6SM BR SCT007 SCT100
     FM231400 33005KT P6SM SCT040=



000
FTUS42 KTAE 222300
TAFDHN
TAF
KDHN 222331Z 2300/2324 28006KT P6SM SHRA BKN060 OVC100
     FM230300 30005KT P6SM BKN100
     FM231000 32004KT 6SM BR SCT007 SCT100
     FM231400 35006KT P6SM SCT040=



000
FTUS42 KTAE 221700
TAFABY
TAF
KABY 221724Z 2218/2318 26010KT P6SM BKN040 BKN070
     FM222300 27010KT P6SM VCTS BKN050CB
      TEMPO 2300/2302 6SM -TSRA BR BKN050CB
     FM230300 28004KT P6SM BKN100
     FM230900 31004KT 5SM BR SKC
     FM231400 34005KT P6SM FEW250=



000
FTUS42 KTAE 221700
TAFDHN
TAF
KDHN 221724Z 2218/2318 28009KT P6SM BKN050
     FM222000 28010KT P6SM VCTS BKN050CB
      TEMPO 2222/2224 6SM -TSRA BR BKN050CB
     FM230300 28006KT P6SM BKN100
     FM231200 33003KT 5SM BR BKN007
      TEMPO 2312/2314 3SM BR
     FM231400 35006KT P6SM SKC=



000
FTUS42 KTAE 221700
TAFVLD
TAF
KVLD 221724Z 2218/2318 26007KT P6SM SCT050 BKN100
     FM230000 23003KT P6SM BKN050 BKN100
     FM230900 35003KT 4SM BR OVC004
      TEMPO 2312/2314 00000KT 2SM BR OVC001
     FM231500 35005KT P6SM SCT250=



000
FTUS42 KTAE 221700
TAFTLH
TAF
KTLH 221724Z 2218/2318 26008KT P6SM SCT050 BKN100
     FM230900 31003KT 5SM BR SKC
      TEMPO 2311/2314 00000KT 1SM BR BKN003
     FM231500 31005KT P6SM SCT250=



000
FTUS42 KTAE 221300 AAA
TAFVLD
TAF AMD
KVLD 221340Z 2214/2312 00000KT P6SM SKC
     FM221500 29006KT P6SM BKN100
     FM221800 26007KT P6SM SCT050 BKN100
     FM230000 24003KT P6SM BKN050 BKN100
     FM230900 05003KT 4SM BR OVC004=



000
FTUS42 KTAE 221100
TAFDHN
TAF
KDHN 221120Z 2212/2312 27004KT P6SM SCT250
     FM221500 28009KT P6SM SCT050 BKN100
     FM221800 28010KT P6SM VCTS BKN050CB
      TEMPO 2220/2224 6SM -TSRA BR BKN050CB
     FM230000 28010KT P6SM -RA BKN100
     FM230600 28007KT P6SM SKC=



000
FTUS42 KTAE 221100
TAFABY
TAF
KABY 221120Z 2212/2312 00000KT P6SM SCT250
     FM221500 27008KT P6SM SCT050 BKN100
     FM221800 27010KT P6SM VCTS BKN050CB
      TEMPO 2220/2224 6SM -TSRA BR BKN050CB
     FM230000 28004KT P6SM -RA BKN100
     FM230900 29004KT 5SM BR SKC=



000
FTUS42 KTAE 221100
TAFVLD
TAF
KVLD 221120Z 2212/2312 00000KT P6SM SKC
      TEMPO 2212/2214 5SM BR
     FM221500 29006KT P6SM BKN100
     FM221800 26007KT P6SM SCT050 BKN100
     FM230000 24003KT P6SM BKN050 BKN100
     FM230900 05003KT 4SM BR OVC004=



000
FTUS42 KTAE 221100
TAFTLH
TAF
KTLH 221120Z 2212/2312 00000KT P6SM SCT250
      TEMPO 2212/2214 6SM BR
     FM221500 29007KT P6SM SCT250
     FM221800 26008KT P6SM SCT050 BKN100
     FM230900 31003KT 5SM BR SKC=



000
FTUS42 KTAE 221100 AAA
TAFTLH
TAF AMD
KTLH 221116Z 2211/2306 00000KT P6SM SCT250
     FM221500 29007KT P6SM SCT250
     FM221800 26008KT P6SM SCT050 BKN100=



000
FTUS42 KTAE 220500
TAFDHN
TAF
KDHN 220535Z 2206/2306 25005KT P6SM SCT250
     FM221500 28009KT P6SM SCT050 BKN100
     FM221800 28010KT P6SM VCTS BKN050CB
      TEMPO 2220/2224 6SM -TSRA BR BKN050CB
     FM230000 28010KT P6SM -RA BKN100=



000
FTUS42 KTAE 220500
TAFTLH
TAF
KTLH 220535Z 2206/2306 00000KT P6SM SCT250
      TEMPO 2208/2212 4SM BR
     FM221500 29007KT P6SM SCT250
     FM221800 26008KT P6SM SCT050 BKN100=



000
FTUS42 KTAE 220500
TAFABY
TAF
KABY 220535Z 2206/2306 00000KT P6SM SKC
     FM221500 27008KT P6SM SCT050 BKN100
     FM221800 27010KT P6SM VCTS BKN050CB
      TEMPO 2220/2224 6SM -TSRA BR BKN050CB
     FM230000 28004KT P6SM -RA BKN100=



000
FTUS42 KTAE 220500
TAFVLD
TAF
KVLD 220535Z 2206/2306 00000KT P6SM SKC
      TEMPO 2209/2213 4SM BR
     FM221500 29006KT P6SM BKN100
     FM221800 26007KT P6SM SCT050 BKN100
     FM230000 24003KT P6SM BKN050 BKN100=



    US Dept of Commerce
    National Oceanic and Atmospheric Administration
    National Weather Service
    1325 East West Highway
    Silver Spring, MD 20910
    Page Author: NWS Internet Services Team
Disclaimer
Information Quality
Credits
Glossary
Privacy Policy
Freedom of Information Act (FOIA)
About Us
Career Opportunities